createdAt,value
2023-04-04T00:00:36.990Z,1.21
2023-04-04T00:03:08.180Z,1.17
2023-04-04T00:05:36.983Z,1.10
2023-04-04T00:08:05.564Z,1.10
2023-04-04T00:10:33.650Z,1.13
2023-04-04T00:13:02.087Z,1.17
2023-04-04T00:15:30.231Z,1.18
2023-04-04T00:17:59.188Z,1.21
2023-04-04T00:20:27.650Z,1.24
2023-04-04T00:22:55.382Z,1.24
2023-04-04T00:25:24.242Z,1.25
2023-04-04T00:27:52.732Z,1.25
2023-04-04T00:30:22.481Z,1.19
2023-04-04T00:32:49.874Z,1.17
2023-04-04T00:35:17.241Z,1.13
2023-04-04T00:37:44.552Z,1.12
2023-04-04T00:40:13.305Z,1.14
2023-04-04T00:42:42.192Z,1.09
2023-04-04T00:45:10.742Z,1.02
2023-04-04T00:47:39.687Z,1.00
2023-04-04T00:50:07.950Z,0.97
2023-04-04T00:52:35.872Z,0.98
2023-04-04T00:55:04.794Z,0.97
2023-04-04T00:57:34.646Z,0.95
2023-04-04T01:00:06.561Z,0.94
2023-04-04T01:02:36.273Z,0.96
2023-04-04T01:05:06.397Z,0.96
2023-04-04T01:07:38.406Z,1.01
2023-04-04T01:10:10.475Z,1.03
2023-04-04T01:12:39.389Z,1.06
2023-04-04T01:15:08.513Z,1.00
2023-04-04T01:17:38.773Z,0.99
2023-04-04T01:20:12.057Z,1.01
2023-04-04T01:22:41.694Z,0.94
2023-04-04T01:25:11.040Z,0.92
2023-04-04T01:27:40.044Z,0.90
2023-04-04T01:30:09.601Z,0.90
2023-04-04T01:32:44.950Z,0.87
2023-04-04T01:35:42.895Z,0.84
2023-04-04T01:38:21.881Z,0.87
2023-04-04T01:40:50.020Z,0.89
2023-04-04T01:43:17.560Z,0.87
2023-04-04T01:45:44.938Z,0.89
2023-04-04T01:48:13.366Z,0.88
2023-04-04T01:50:41.450Z,0.88
2023-04-04T01:53:08.769Z,0.83
2023-04-04T01:55:35.803Z,0.84
2023-04-04T01:58:03.934Z,0.86
2023-04-04T02:00:32.727Z,0.83
2023-04-04T02:03:00.466Z,0.83
2023-04-04T02:05:32.104Z,0.81
2023-04-04T02:07:59.613Z,0.83
2023-04-04T02:10:26.636Z,0.83
2023-04-04T02:12:53.696Z,0.72
2023-04-04T02:15:20.752Z,0.69
2023-04-04T02:17:48.959Z,0.68
2023-04-04T02:20:19.268Z,0.73
2023-04-04T02:22:53.702Z,0.76
2023-04-04T02:25:22.896Z,0.76
2023-04-04T02:27:50.046Z,0.70
2023-04-04T02:30:17.512Z,0.66
2023-04-04T02:32:44.664Z,0.60
2023-04-04T02:35:12.027Z,0.59
2023-04-04T02:37:39.114Z,0.55
2023-04-04T02:40:06.793Z,0.57
2023-04-04T02:42:33.825Z,0.51
2023-04-04T02:45:01.173Z,0.46
2023-04-04T02:47:28.641Z,0.44
2023-04-04T02:49:56.360Z,0.44
2023-04-04T02:52:23.405Z,0.39
2023-04-04T02:54:50.765Z,0.39
2023-04-04T02:57:18.340Z,0.42
2023-04-04T02:59:45.367Z,0.43
2023-04-04T03:02:12.424Z,0.44
2023-04-04T03:04:40.024Z,0.45
2023-04-04T03:07:07.146Z,0.46
2023-04-04T03:09:34.223Z,0.51
2023-04-04T03:12:01.418Z,0.53
2023-04-04T03:14:29.958Z,0.49
2023-04-04T03:16:57.450Z,0.48
2023-04-04T03:19:24.759Z,0.42
2023-04-04T03:21:51.829Z,0.41
2023-04-04T03:24:18.864Z,0.41
2023-04-04T03:26:46.816Z,0.39
2023-04-04T03:29:14.010Z,0.34
2023-04-04T03:31:41.750Z,0.34
2023-04-04T03:34:09.456Z,0.31
2023-04-04T03:36:36.518Z,0.31
2023-04-04T03:39:03.595Z,0.28
2023-04-04T03:41:31.027Z,0.33
2023-04-04T03:43:58.038Z,0.31
2023-04-04T03:46:25.444Z,0.32
2023-04-04T03:48:52.562Z,0.34
2023-04-04T03:51:27.366Z,0.34
2023-04-04T03:53:55.072Z,0.32
2023-04-04T03:56:22.174Z,0.31
2023-04-04T03:58:49.436Z,0.27
2023-04-04T04:01:21.072Z,0.25
2023-04-04T04:03:48.232Z,0.27
2023-04-04T04:06:15.424Z,0.22
2023-04-04T04:08:42.706Z,0.19
2023-04-04T04:11:09.739Z,0.20
2023-04-04T04:13:38.812Z,0.19
2023-04-04T04:16:06.264Z,0.23
2023-04-04T04:18:33.644Z,0.22
2023-04-04T04:21:02.748Z,0.22
2023-04-04T04:23:30.361Z,0.25
2023-04-04T04:25:57.611Z,0.26
2023-04-04T04:28:33.827Z,0.30
2023-04-04T04:31:09.042Z,0.28
2023-04-04T04:33:36.508Z,0.21
2023-04-04T04:36:04.741Z,0.20
2023-04-04T04:38:32.135Z,0.20
2023-04-04T04:41:00.974Z,0.20
2023-04-04T04:43:28.131Z,0.19
2023-04-04T04:45:55.154Z,0.23
2023-04-04T04:48:22.741Z,0.23
2023-04-04T04:50:49.789Z,0.27
2023-04-04T04:53:16.888Z,0.26
2023-04-04T04:55:43.945Z,0.27
2023-04-04T04:58:11.249Z,0.30
2023-04-04T05:00:39.318Z,0.31
2023-04-04T05:03:07.854Z,0.33
2023-04-04T05:05:35.037Z,0.31
2023-04-04T05:08:03.109Z,0.28
2023-04-04T05:10:31.346Z,0.31
2023-04-04T05:12:58.462Z,0.33
2023-04-04T05:15:31.492Z,0.38
2023-04-04T05:17:59.213Z,0.44
2023-04-04T05:20:26.332Z,0.40
2023-04-04T05:22:53.726Z,0.40
2023-04-04T05:25:20.773Z,0.38
2023-04-04T05:27:48.896Z,0.33
2023-04-04T05:30:16.878Z,0.32
2023-04-04T05:32:47.100Z,0.30
2023-04-04T05:35:14.485Z,0.32
2023-04-04T05:37:41.704Z,0.33
2023-04-04T05:40:09.980Z,0.34
2023-04-04T05:42:37.335Z,0.33
2023-04-04T05:45:05.064Z,0.28
2023-04-04T05:47:32.139Z,0.32
2023-04-04T05:49:59.290Z,0.35
2023-04-04T05:52:26.675Z,0.40
2023-04-04T05:54:53.750Z,0.44
2023-04-04T05:57:20.821Z,0.43
2023-04-04T05:59:47.896Z,0.44
2023-04-04T06:02:14.967Z,0.42
2023-04-04T06:04:42.134Z,0.39
2023-04-04T06:07:09.228Z,0.38
2023-04-04T06:09:36.357Z,0.37
2023-04-04T06:12:06.631Z,0.46
2023-04-04T06:14:33.679Z,0.48
2023-04-04T06:17:00.919Z,0.47
2023-04-04T06:19:27.971Z,0.43
2023-04-04T06:21:55.066Z,0.50
2023-04-04T06:24:22.323Z,0.50
2023-04-04T06:26:51.798Z,0.50
2023-04-04T06:29:18.923Z,0.58
2023-04-04T06:31:46.731Z,0.58
2023-04-04T06:34:13.770Z,0.56
2023-04-04T06:36:40.890Z,0.56
2023-04-04T06:39:08.144Z,0.62
2023-04-04T06:41:35.282Z,0.65
2023-04-04T06:44:02.301Z,0.68
2023-04-04T06:46:31.437Z,0.71
2023-04-04T06:48:58.987Z,0.71
2023-04-04T06:51:27.122Z,0.72
2023-04-04T06:53:58.078Z,0.74
2023-04-04T06:56:25.357Z,0.80
2023-04-04T06:58:52.749Z,0.82
2023-04-04T07:01:20.660Z,0.88
2023-04-04T07:03:51.861Z,0.91
2023-04-04T07:06:20.375Z,0.96
2023-04-04T07:08:47.686Z,0.94
2023-04-04T07:11:14.784Z,0.93
2023-04-04T07:13:42.046Z,0.92
2023-04-04T07:16:09.258Z,0.91
2023-04-04T07:18:36.377Z,0.92
2023-04-04T07:21:03.473Z,0.94
2023-04-04T07:23:30.554Z,1.10
2023-04-04T07:25:58.147Z,1.34
2023-04-04T07:28:25.472Z,1.61
2023-04-04T07:30:52.717Z,1.87
2023-04-04T07:33:19.848Z,1.97
2023-04-04T07:35:47.151Z,2.01
2023-04-04T07:38:14.322Z,2.01
2023-04-04T07:40:41.558Z,1.97
2023-04-04T07:43:08.950Z,1.97
2023-04-04T07:45:36.346Z,1.98
2023-04-04T07:48:03.912Z,2.08
2023-04-04T07:50:31.286Z,2.24
2023-04-04T07:52:58.691Z,2.47
2023-04-04T07:55:26.064Z,2.69
2023-04-04T07:57:53.627Z,2.74
2023-04-04T08:00:22.095Z,2.65
2023-04-04T08:02:54.452Z,2.62
2023-04-04T08:05:21.963Z,2.84
2023-04-04T08:07:49.180Z,3.17
2023-04-04T08:10:19.326Z,3.40
2023-04-04T08:12:46.502Z,3.57
2023-04-04T08:15:13.545Z,3.79
2023-04-04T08:17:41.782Z,4.02
2023-04-04T08:20:09.547Z,4.08
2023-04-04T08:22:37.116Z,3.89
2023-04-04T08:25:04.931Z,3.51
2023-04-04T08:27:32.861Z,3.45
2023-04-04T08:30:00.475Z,3.44
2023-04-04T08:32:27.547Z,3.42
2023-04-04T08:34:54.571Z,3.26
2023-04-04T08:37:22.303Z,3.23
2023-04-04T08:39:50.183Z,3.37
2023-04-04T08:42:20.526Z,3.63
2023-04-04T08:44:50.926Z,3.75
2023-04-04T08:47:19.761Z,3.71
2023-04-04T08:49:48.331Z,3.68
2023-04-04T08:52:19.300Z,3.57
2023-04-04T08:55:05.908Z,3.45
2023-04-04T08:57:51.387Z,3.39
2023-04-04T09:00:40.891Z,3.30
2023-04-04T09:03:31.654Z,3.33
2023-04-04T09:06:19.694Z,3.32
2023-04-04T09:09:07.593Z,3.18
2023-04-04T09:11:54.884Z,2.98
2023-04-04T09:14:43.795Z,2.94
2023-04-04T09:17:31.351Z,2.90
2023-04-04T09:20:43.847Z,2.84
2023-04-04T09:23:31.327Z,2.86
2023-04-04T09:26:18.846Z,2.87
2023-04-04T09:29:08.618Z,2.80
2023-04-04T09:31:56.038Z,2.72
2023-04-04T09:34:45.277Z,2.73
2023-04-04T09:37:32.862Z,2.83
2023-04-04T09:40:20.331Z,3.32
2023-04-04T09:43:08.466Z,3.49
2023-04-04T09:45:56.363Z,3.55
2023-04-04T09:48:49.164Z,3.50
2023-04-04T09:51:37.226Z,3.38
2023-04-04T09:54:29.736Z,3.33
2023-04-04T09:57:18.497Z,3.31
2023-04-04T10:00:09.244Z,3.29
2023-04-04T10:02:58.378Z,3.26
2023-04-04T10:05:47.002Z,3.29
2023-04-04T10:08:35.224Z,3.30
2023-04-04T10:11:34.112Z,3.35
2023-04-04T10:14:34.822Z,3.77
2023-04-04T10:17:22.592Z,4.11
2023-04-04T10:20:10.423Z,4.13
2023-04-04T10:22:58.700Z,3.99
2023-04-04T10:25:46.252Z,3.91
2023-04-04T10:28:34.850Z,3.86
2023-04-04T10:31:26.150Z,3.83
2023-04-04T10:34:28.196Z,3.79
2023-04-04T10:37:20.587Z,3.77
2023-04-04T10:40:15.752Z,3.86
2023-04-04T10:43:05.077Z,4.13
2023-04-04T10:45:53.381Z,4.41
2023-04-04T10:48:44.124Z,4.58
2023-04-04T10:51:48.785Z,4.48
2023-04-04T10:54:47.332Z,4.39
2023-04-04T10:57:41.275Z,4.35
2023-04-04T11:00:30.419Z,4.25
2023-04-04T11:03:19.169Z,4.19
2023-04-04T11:06:14.696Z,4.48
2023-04-04T11:09:02.333Z,4.88
2023-04-04T11:12:12.093Z,5.20
2023-04-04T11:15:06.490Z,5.43
2023-04-04T11:18:17.964Z,5.29
2023-04-04T11:21:31.088Z,5.01
2023-04-04T11:24:19.831Z,4.80
2023-04-04T11:27:08.918Z,4.71
2023-04-04T11:29:59.996Z,4.53
2023-04-04T11:33:00.129Z,4.39
2023-04-04T11:36:01.477Z,4.33
2023-04-04T11:38:51.644Z,4.56
2023-04-04T11:41:50.738Z,5.05
2023-04-04T11:44:44.004Z,5.31
2023-04-04T11:47:34.002Z,5.13
2023-04-04T11:50:23.125Z,5.00
2023-04-04T11:53:12.805Z,5.12
2023-04-04T11:56:02.075Z,5.32
2023-04-04T11:59:01.584Z,5.53
2023-04-04T12:01:57.811Z,5.49
2023-04-04T12:04:48.755Z,5.30
2023-04-04T12:07:37.898Z,5.39
2023-04-04T12:10:28.636Z,5.54
2023-04-04T12:13:18.230Z,5.86
2023-04-04T12:16:09.556Z,5.98
2023-04-04T12:19:02.444Z,6.42
2023-04-04T12:21:53.349Z,6.45
2023-04-04T12:24:42.425Z,6.24
2023-04-04T12:27:33.338Z,5.99
2023-04-04T12:30:23.504Z,5.71
2023-04-04T12:33:12.705Z,5.79
2023-04-04T12:36:06.413Z,5.81
2023-04-04T12:39:04.472Z,5.88
2023-04-04T12:41:58.921Z,6.04
2023-04-04T12:44:58.313Z,6.29
2023-04-04T12:47:59.309Z,6.51
2023-04-04T12:50:59.154Z,6.73
2023-04-04T12:53:57.721Z,6.66
2023-04-04T12:56:46.143Z,6.59
2023-04-04T12:59:37.867Z,6.61
2023-04-04T13:02:28.642Z,6.74
2023-04-04T13:05:18.918Z,6.63
2023-04-04T13:08:09.136Z,6.53
2023-04-04T13:10:58.499Z,6.32
2023-04-04T13:13:49.432Z,6.23
2023-04-04T13:16:42.988Z,6.21
2023-04-04T13:19:32.677Z,6.16
2023-04-04T13:22:20.548Z,6.01
2023-04-04T13:25:12.892Z,6.17
2023-04-04T13:28:03.584Z,6.31
2023-04-04T13:30:53.104Z,6.25
2023-04-04T13:33:41.970Z,6.02
2023-04-04T13:36:31.354Z,5.79
2023-04-04T13:39:26.120Z,5.82
2023-04-04T13:42:15.386Z,5.99
2023-04-04T13:45:04.552Z,5.99
2023-04-04T13:47:56.699Z,5.86
2023-04-04T13:50:58.733Z,5.84
2023-04-04T13:53:48.263Z,5.73
2023-04-04T13:56:37.644Z,5.79
2023-04-04T13:59:25.590Z,5.87
2023-04-04T14:02:15.451Z,6.01
2023-04-04T14:05:03.616Z,6.02
2023-04-04T14:07:53.800Z,6.02
2023-04-04T14:10:42.497Z,6.06
2023-04-04T14:13:32.378Z,6.05
2023-04-04T14:16:23.671Z,6.01
2023-04-04T14:19:13.335Z,6.02
2023-04-04T14:22:04.932Z,6.01
2023-04-04T14:24:53.921Z,6.11
2023-04-04T14:27:42.922Z,6.24
2023-04-04T14:30:32.227Z,6.34
2023-04-04T14:33:22.935Z,6.41
2023-04-04T14:36:16.117Z,6.41
2023-04-04T14:39:04.747Z,6.37
2023-04-04T14:41:53.809Z,6.31
2023-04-04T14:44:42.870Z,6.21
2023-04-04T14:47:30.551Z,6.27
2023-04-04T14:49:58.139Z,6.48
2023-04-04T14:52:25.328Z,6.68
2023-04-04T14:54:52.363Z,6.64
2023-04-04T14:57:20.093Z,6.73
2023-04-04T14:59:50.637Z,6.77
2023-04-04T15:02:41.555Z,6.88
2023-04-04T15:05:14.066Z,6.99
2023-04-04T15:07:44.018Z,7.06
2023-04-04T15:10:12.431Z,7.19
2023-04-04T15:12:43.030Z,7.14
2023-04-04T15:15:12.384Z,6.84
2023-04-04T15:17:42.853Z,6.70
2023-04-04T15:20:13.770Z,6.63
2023-04-04T15:22:44.835Z,6.74
2023-04-04T15:25:13.930Z,6.94
2023-04-04T15:27:42.632Z,7.15
2023-04-04T15:30:13.764Z,7.16
2023-04-04T15:32:42.566Z,7.15
2023-04-04T15:35:20.445Z,7.14
2023-04-04T15:37:52.134Z,7.14
2023-04-04T15:40:21.759Z,7.30
2023-04-04T15:42:49.968Z,7.21
2023-04-04T15:45:18.519Z,6.94
2023-04-04T15:47:47.802Z,6.58
2023-04-04T15:50:16.933Z,6.34
2023-04-04T15:52:46.067Z,5.99
2023-04-04T15:55:20.864Z,5.82
2023-04-04T15:57:51.195Z,5.69
2023-04-04T16:00:20.500Z,5.55
2023-04-04T16:02:49.309Z,5.42
2023-04-04T16:05:18.673Z,5.30
2023-04-04T16:07:47.145Z,5.22
2023-04-04T16:10:16.807Z,5.16
2023-04-04T16:12:45.720Z,5.09
2023-04-04T16:15:14.935Z,5.05
2023-04-04T16:17:43.469Z,4.98
2023-04-04T16:20:13.749Z,4.95
2023-04-04T16:22:41.340Z,4.92
2023-04-04T16:25:10.533Z,4.83
2023-04-04T16:27:38.821Z,4.81
2023-04-04T16:30:06.938Z,4.73
2023-04-04T16:32:37.904Z,4.64
2023-04-04T16:35:08.344Z,4.63
2023-04-04T16:37:38.330Z,4.62
2023-04-04T16:40:08.951Z,4.59
2023-04-04T16:42:37.725Z,4.50
2023-04-04T16:45:09.076Z,4.42
2023-04-04T16:47:39.601Z,4.37
2023-04-04T16:50:10.712Z,4.31
2023-04-04T16:52:41.947Z,4.36
2023-04-04T16:55:15.960Z,4.37
2023-04-04T16:57:44.822Z,4.37
2023-04-04T17:00:14.857Z,4.36
2023-04-04T17:02:46.313Z,4.35
2023-04-04T17:05:14.397Z,4.29
2023-04-04T17:07:41.475Z,4.17
2023-04-04T17:10:09.888Z,4.14
2023-04-04T17:12:37.554Z,4.07
2023-04-04T17:15:06.125Z,4.02
2023-04-04T17:17:33.522Z,4.04
2023-04-04T17:20:00.792Z,4.02
2023-04-04T17:22:28.045Z,4.01
2023-04-04T17:25:14.245Z,3.97
2023-04-04T17:28:04.133Z,3.92
2023-04-04T17:30:51.917Z,3.89
2023-04-04T17:33:39.427Z,3.89
2023-04-04T17:36:06.593Z,3.89
2023-04-04T17:38:34.168Z,3.82
2023-04-04T17:41:05.006Z,3.73
2023-04-04T17:43:32.119Z,3.70
2023-04-04T17:45:59.700Z,3.67
2023-04-04T17:48:28.908Z,3.68
2023-04-04T17:50:56.056Z,3.67
2023-04-04T17:53:25.898Z,3.61
2023-04-04T17:55:52.948Z,3.56
2023-04-04T17:58:19.995Z,3.59
2023-04-04T18:00:47.251Z,3.56
2023-04-04T18:03:15.207Z,3.53
2023-04-04T18:05:43.731Z,3.49
2023-04-04T18:08:12.941Z,3.43
2023-04-04T18:10:40.452Z,3.43
2023-04-04T18:13:07.872Z,3.43
2023-04-04T18:15:35.938Z,3.41
2023-04-04T18:18:03.232Z,3.37
2023-04-04T18:20:34.847Z,3.39
2023-04-04T18:23:04.533Z,3.37
2023-04-04T18:25:32.598Z,3.38
2023-04-04T18:28:02.018Z,3.37
2023-04-04T18:30:32.478Z,3.35
2023-04-04T18:32:59.595Z,3.31
2023-04-04T18:35:27.153Z,3.30
2023-04-04T18:37:54.242Z,3.24
2023-04-04T18:40:21.486Z,3.19
2023-04-04T18:42:48.693Z,3.15
2023-04-04T18:45:18.271Z,3.15
2023-04-04T18:47:45.840Z,3.10
2023-04-04T18:50:13.796Z,3.04
2023-04-04T18:52:42.915Z,2.97
2023-04-04T18:55:10.708Z,2.90
2023-04-04T18:57:38.257Z,2.82
2023-04-04T19:00:06.845Z,2.77
2023-04-04T19:02:37.279Z,2.69
2023-04-04T19:05:05.073Z,2.61
2023-04-04T19:07:32.860Z,2.56
2023-04-04T19:10:04.291Z,2.46
2023-04-04T19:12:31.819Z,2.41
2023-04-04T19:15:00.504Z,2.37
2023-04-04T19:17:27.586Z,2.31
2023-04-04T19:19:55.028Z,2.23
2023-04-04T19:22:22.158Z,2.18
2023-04-04T19:24:49.276Z,2.14
2023-04-04T19:27:16.621Z,2.10
2023-04-04T19:29:43.700Z,2.09
2023-04-04T19:32:17.231Z,2.10
2023-04-04T19:34:44.433Z,2.04
2023-04-04T19:37:12.260Z,2.04
2023-04-04T19:39:41.661Z,2.01
2023-04-04T19:42:09.778Z,1.98
2023-04-04T19:44:39.764Z,1.97
2023-04-04T19:47:10.571Z,1.98
2023-04-04T19:49:39.542Z,1.95
2023-04-04T19:52:08.586Z,1.86
2023-04-04T19:54:42.810Z,1.82
2023-04-04T19:57:17.726Z,1.78
2023-04-04T19:59:58.620Z,1.74
2023-04-04T20:02:34.871Z,1.74
2023-04-04T20:05:02.816Z,1.67
2023-04-04T20:07:30.016Z,1.60
2023-04-04T20:09:57.634Z,1.51
2023-04-04T20:12:25.694Z,1.45
2023-04-04T20:14:55.592Z,1.47
2023-04-04T20:17:22.980Z,1.43
2023-04-04T20:19:50.137Z,1.44
2023-04-04T20:22:17.665Z,1.37
2023-04-04T20:24:46.710Z,1.32
2023-04-04T20:27:23.751Z,1.30
2023-04-04T20:29:53.959Z,1.25
2023-04-04T20:32:21.677Z,1.22
2023-04-04T20:34:50.554Z,1.20
2023-04-04T20:37:22.971Z,1.21
2023-04-04T20:39:57.209Z,1.23
2023-04-04T20:42:34.207Z,1.13
2023-04-04T20:45:11.094Z,1.08
2023-04-04T20:47:48.515Z,0.99
2023-04-04T20:50:19.199Z,0.92
2023-04-04T20:52:47.430Z,0.87
2023-04-04T20:55:14.519Z,0.76
2023-04-04T20:57:41.636Z,0.78
2023-04-04T21:00:39.624Z,0.87
2023-04-04T21:03:20.505Z,0.95
2023-04-04T21:05:47.943Z,0.91
2023-04-04T21:08:24.482Z,0.86
2023-04-04T21:10:53.545Z,0.91
2023-04-04T21:13:27.237Z,0.92
2023-04-04T21:16:01.170Z,0.89
2023-04-04T21:18:31.392Z,0.94
2023-04-04T21:21:08.931Z,0.89
2023-04-04T21:23:47.185Z,0.95
2023-04-04T21:26:19.298Z,0.87
2023-04-04T21:28:46.413Z,0.77
2023-04-04T21:31:17.870Z,0.69
2023-04-04T21:33:46.351Z,0.66
2023-04-04T21:36:26.414Z,0.70
2023-04-04T21:38:58.379Z,0.74
2023-04-04T21:41:29.173Z,0.75
2023-04-04T21:43:58.953Z,0.67
2023-04-04T21:46:28.851Z,0.72
2023-04-04T21:48:56.345Z,0.78
2023-04-04T21:51:24.253Z,0.83
2023-04-04T21:53:51.460Z,0.84
2023-04-04T21:56:18.606Z,0.86
2023-04-04T21:58:45.791Z,0.90
2023-04-04T22:01:12.998Z,0.92
2023-04-04T22:03:40.657Z,0.91
2023-04-04T22:06:07.836Z,0.89
2023-04-04T22:08:34.942Z,0.84
2023-04-04T22:11:03.193Z,0.74
2023-04-04T22:13:33.391Z,0.69
2023-04-04T22:16:02.511Z,0.55
2023-04-04T22:18:35.570Z,0.41
2023-04-04T22:21:03.143Z,0.31
2023-04-04T22:23:36.994Z,0.31
2023-04-04T22:26:05.261Z,0.37
2023-04-04T22:28:37.433Z,0.37
2023-04-04T22:31:05.527Z,0.40
2023-04-04T22:33:34.068Z,0.46
2023-04-04T22:36:01.754Z,0.43
2023-04-04T22:38:29.270Z,0.43
2023-04-04T22:40:57.504Z,0.43
2023-04-04T22:43:28.594Z,0.43
2023-04-04T22:45:55.887Z,0.39
2023-04-04T22:48:22.980Z,0.39
2023-04-04T22:50:55.863Z,0.37
2023-04-04T22:53:26.428Z,0.38
2023-04-04T22:55:58.223Z,0.37
2023-04-04T22:58:25.384Z,0.35
2023-04-04T23:00:52.792Z,0.33
2023-04-04T23:03:19.898Z,0.30
2023-04-04T23:05:46.934Z,0.27
2023-04-04T23:08:13.976Z,0.24
2023-04-04T23:10:41.298Z,0.25
2023-04-04T23:13:08.525Z,0.25
2023-04-04T23:15:37.777Z,0.24
2023-04-04T23:18:05.294Z,0.22
2023-04-04T23:20:32.932Z,0.21
2023-04-04T23:23:00.260Z,0.13
2023-04-04T23:25:27.611Z,0.10
2023-04-04T23:27:54.651Z,0.10
2023-04-04T23:30:23.602Z,0.13
2023-04-04T23:32:51.812Z,0.12
2023-04-04T23:35:18.889Z,0.14
2023-04-04T23:37:46.184Z,0.16
2023-04-04T23:40:13.601Z,0.16
2023-04-04T23:42:42.275Z,0.19
2023-04-04T23:45:10.220Z,0.21
2023-04-04T23:47:37.786Z,0.23
2023-04-04T23:50:05.272Z,0.22
2023-04-04T23:52:32.400Z,0.24
2023-04-04T23:54:59.467Z,0.24
2023-04-04T23:57:26.632Z,0.24
2023-04-04T23:59:53.755Z,0.20
